createdAt,value
2023-01-27T00:01:10.915Z,76.09
2023-01-27T00:03:38.568Z,76.17
2023-01-27T00:06:06.519Z,76.15
2023-01-27T00:08:34.506Z,76.16
2023-01-27T00:11:20.738Z,76.20
2023-01-27T00:13:48.647Z,76.24
2023-01-27T00:16:16.471Z,76.32
2023-01-27T00:18:44.268Z,76.20
2023-01-27T00:21:30.716Z,76.24
2023-01-27T00:24:17.191Z,76.23
2023-01-27T00:26:44.899Z,76.09
2023-01-27T00:29:13.442Z,76.07
2023-01-27T00:31:59.750Z,76.10
2023-01-27T00:34:27.487Z,76.21
2023-01-27T00:36:55.205Z,76.24
2023-01-27T00:39:23.008Z,76.17
2023-01-27T00:41:50.699Z,76.19
2023-01-27T00:44:18.310Z,76.19
2023-01-27T00:46:46.065Z,76.19
2023-01-27T00:49:13.821Z,76.22
2023-01-27T00:51:42.239Z,76.21
2023-01-27T00:54:10.327Z,76.23
2023-01-27T00:56:38.542Z,76.23
2023-01-27T00:59:06.726Z,76.19
2023-01-27T01:01:35.186Z,76.26
2023-01-27T01:04:03.649Z,76.37
2023-01-27T01:06:31.874Z,76.47
2023-01-27T01:08:59.625Z,76.58
2023-01-27T01:11:27.687Z,76.57
2023-01-27T01:13:56.560Z,76.57
2023-01-27T01:16:25.628Z,76.67
2023-01-27T01:18:54.099Z,76.62
2023-01-27T01:21:22.028Z,76.58
2023-01-27T01:23:50.134Z,76.61
2023-01-27T01:26:18.720Z,76.63
2023-01-27T01:28:47.092Z,76.54
2023-01-27T01:31:17.901Z,76.60
2023-01-27T01:33:47.311Z,76.56
2023-01-27T01:36:18.673Z,76.54
2023-01-27T01:38:46.840Z,76.49
2023-01-27T01:41:18.459Z,76.49
2023-01-27T01:43:48.268Z,76.55
2023-01-27T01:46:16.826Z,76.55
2023-01-27T01:48:58.463Z,76.60
2023-01-27T01:51:40.240Z,76.60
2023-01-27T01:54:17.036Z,76.61
2023-01-27T01:56:58.138Z,76.62
2023-01-27T01:59:35.468Z,76.76
2023-01-27T02:02:07.378Z,76.74
2023-01-27T02:04:42.511Z,76.81
2023-01-27T02:07:19.894Z,76.72
2023-01-27T02:09:47.787Z,76.70
2023-01-27T02:12:15.582Z,76.60
2023-01-27T02:14:43.306Z,76.59
2023-01-27T02:17:13.058Z,76.59
2023-01-27T02:20:05.249Z,76.52
2023-01-27T02:22:35.894Z,76.72
2023-01-27T02:25:15.519Z,76.79
2023-01-27T02:27:43.418Z,76.84
2023-01-27T02:30:11.459Z,76.90
2023-01-27T02:32:40.206Z,76.79
2023-01-27T02:35:14.170Z,76.89
2023-01-27T02:37:42.438Z,77.03
2023-01-27T02:40:12.363Z,77.05
2023-01-27T02:42:39.970Z,77.04
2023-01-27T02:45:08.033Z,77.01
2023-01-27T02:47:35.981Z,77.07
2023-01-27T02:50:03.929Z,77.23
2023-01-27T02:52:31.914Z,77.32
2023-01-27T02:54:59.826Z,77.29
2023-01-27T02:57:27.555Z,77.33
2023-01-27T03:00:13.273Z,77.52
2023-01-27T03:02:41.041Z,77.62
2023-01-27T03:05:09.102Z,77.69
2023-01-27T03:07:36.769Z,77.73
2023-01-27T03:10:04.819Z,77.73
2023-01-27T03:12:32.495Z,77.59
2023-01-27T03:15:19.000Z,77.47
2023-01-27T03:18:05.759Z,77.33
2023-01-27T03:20:33.932Z,77.27
2023-01-27T03:23:01.673Z,77.28
2023-01-27T03:25:29.485Z,77.29
2023-01-27T03:27:57.698Z,77.24
2023-01-27T03:30:48.527Z,77.16
2023-01-27T03:33:23.138Z,77.08
2023-01-27T03:36:20.845Z,76.93
2023-01-27T03:39:09.291Z,77.09
2023-01-27T03:41:55.732Z,77.23
2023-01-27T03:44:44.993Z,77.08
2023-01-27T03:47:12.599Z,77.11
2023-01-27T03:49:40.315Z,77.13
2023-01-27T03:52:07.965Z,77.34
2023-01-27T03:54:35.625Z,77.51
2023-01-27T03:57:06.145Z,77.41
2023-01-27T03:59:34.292Z,77.34
2023-01-27T04:02:20.916Z,77.25
2023-01-27T04:05:07.280Z,77.10
2023-01-27T04:07:36.221Z,77.24
2023-01-27T04:10:05.323Z,77.35
2023-01-27T04:12:33.005Z,77.30
2023-01-27T04:15:00.671Z,77.39
2023-01-27T04:17:28.350Z,77.34
2023-01-27T04:19:56.214Z,77.36
2023-01-27T04:22:23.805Z,77.49
2023-01-27T04:24:51.546Z,77.59
2023-01-27T04:27:20.378Z,77.67
2023-01-27T04:29:48.714Z,77.69
2023-01-27T04:32:16.385Z,77.74
2023-01-27T04:34:43.963Z,77.81
2023-01-27T04:37:11.810Z,77.89
2023-01-27T04:39:41.306Z,77.89
2023-01-27T04:42:09.002Z,77.75
2023-01-27T04:44:36.669Z,77.70
2023-01-27T04:47:04.355Z,77.82
2023-01-27T04:49:31.998Z,77.84
2023-01-27T04:51:59.688Z,77.91
2023-01-27T04:54:27.287Z,78.01
2023-01-27T04:56:58.548Z,78.00
2023-01-27T04:59:26.923Z,78.04
2023-01-27T05:01:54.871Z,77.96
2023-01-27T05:04:22.786Z,77.92
2023-01-27T05:06:50.539Z,77.95
2023-01-27T05:09:18.248Z,77.95
2023-01-27T05:11:45.902Z,78.01
2023-01-27T05:14:14.729Z,78.01
2023-01-27T05:16:42.516Z,78.04
2023-01-27T05:19:10.143Z,78.12
2023-01-27T05:21:37.833Z,78.24
2023-01-27T05:24:05.723Z,78.28
2023-01-27T05:26:33.453Z,78.31
2023-01-27T05:29:01.154Z,78.31
2023-01-27T05:31:31.750Z,78.28
2023-01-27T05:34:02.023Z,78.35
2023-01-27T05:36:30.440Z,78.34
2023-01-27T05:38:59.139Z,78.44
2023-01-27T05:41:31.069Z,78.48
2023-01-27T05:43:58.868Z,78.52
2023-01-27T05:46:29.331Z,78.58
2023-01-27T05:49:00.385Z,78.55
2023-01-27T05:51:33.850Z,78.57
2023-01-27T05:54:01.659Z,78.54
2023-01-27T05:56:29.425Z,78.47
2023-01-27T05:58:58.327Z,78.40
2023-01-27T06:01:29.284Z,78.59
2023-01-27T06:03:57.011Z,78.75
2023-01-27T06:06:27.170Z,78.82
2023-01-27T06:08:55.077Z,78.66
2023-01-27T06:11:24.318Z,78.58
2023-01-27T06:13:53.116Z,78.56
2023-01-27T06:16:22.356Z,78.61
2023-01-27T06:18:50.308Z,78.73
2023-01-27T06:21:18.438Z,78.83
2023-01-27T06:23:46.169Z,78.88
2023-01-27T06:26:18.895Z,78.89
2023-01-27T06:28:46.753Z,79.01
2023-01-27T06:31:17.384Z,79.02
2023-01-27T06:33:45.334Z,78.92
2023-01-27T06:36:18.798Z,78.87
2023-01-27T06:38:47.084Z,78.90
2023-01-27T06:41:15.293Z,78.95
2023-01-27T06:43:42.945Z,78.99
2023-01-27T06:46:10.769Z,79.03
2023-01-27T06:48:38.453Z,79.06
2023-01-27T06:51:06.853Z,79.11
2023-01-27T06:53:37.222Z,79.19
2023-01-27T06:56:05.976Z,79.13
2023-01-27T06:58:33.650Z,79.14
2023-01-27T07:01:01.623Z,79.16
2023-01-27T07:03:29.859Z,79.18
2023-01-27T07:05:58.227Z,79.24
2023-01-27T07:08:26.912Z,79.37
2023-01-27T07:10:54.626Z,79.44
2023-01-27T07:13:22.597Z,79.40
2023-01-27T07:15:55.449Z,79.35
2023-01-27T07:18:23.403Z,79.32
2023-01-27T07:20:51.553Z,79.33
2023-01-27T07:23:19.216Z,79.27
2023-01-27T07:25:46.850Z,79.31
2023-01-27T07:28:14.505Z,79.37
2023-01-27T07:30:43.985Z,79.31
2023-01-27T07:33:14.414Z,79.29
2023-01-27T07:35:43.202Z,79.18
2023-01-27T07:38:11.150Z,79.17
2023-01-27T07:40:38.840Z,79.04
2023-01-27T07:43:06.652Z,78.92
2023-01-27T07:45:35.683Z,79.03
2023-01-27T07:48:07.035Z,78.96
2023-01-27T07:50:36.208Z,78.87
2023-01-27T07:53:05.236Z,78.82
2023-01-27T07:55:33.994Z,78.85
2023-01-27T07:58:02.243Z,78.87
2023-01-27T08:00:30.880Z,78.75
2023-01-27T08:02:59.708Z,78.59
2023-01-27T08:05:28.462Z,78.69
2023-01-27T08:07:58.573Z,78.49
2023-01-27T08:10:26.709Z,78.55
2023-01-27T08:12:54.415Z,78.43
2023-01-27T08:15:22.805Z,78.10
2023-01-27T08:17:54.981Z,78.33
2023-01-27T08:20:24.401Z,77.97
2023-01-27T08:22:52.732Z,77.46
2023-01-27T08:25:20.595Z,77.70
2023-01-27T08:27:50.720Z,77.29
2023-01-27T08:30:19.347Z,76.93
2023-01-27T08:32:47.799Z,76.89
2023-01-27T08:35:15.622Z,76.77
2023-01-27T08:37:43.232Z,75.95
2023-01-27T08:40:11.923Z,76.56
2023-01-27T08:42:39.734Z,76.57
2023-01-27T08:45:08.840Z,75.02
2023-01-27T08:47:36.534Z,74.63
2023-01-27T08:50:04.376Z,74.15
2023-01-27T08:52:32.129Z,73.67
2023-01-27T08:55:00.462Z,73.68
2023-01-27T08:57:28.353Z,73.24
2023-01-27T08:59:55.968Z,73.55
2023-01-27T09:02:24.382Z,72.74
2023-01-27T09:04:52.242Z,72.33
2023-01-27T09:07:19.981Z,72.06
2023-01-27T09:09:48.487Z,72.22
2023-01-27T09:12:16.595Z,71.96
2023-01-27T09:14:44.344Z,71.73
2023-01-27T09:17:12.013Z,71.16
2023-01-27T09:19:39.739Z,70.21
2023-01-27T09:22:07.437Z,69.26
2023-01-27T09:24:35.083Z,68.44
2023-01-27T09:27:02.777Z,68.12
2023-01-27T09:29:31.105Z,67.13
2023-01-27T09:31:59.411Z,66.96
2023-01-27T09:34:27.177Z,66.40
2023-01-27T09:37:01.277Z,64.54
2023-01-27T09:39:31.292Z,64.01
2023-01-27T09:42:08.899Z,63.17
2023-01-27T09:45:07.652Z,63.71
2023-01-27T09:47:46.497Z,64.68
2023-01-27T09:50:20.352Z,63.24
2023-01-27T09:52:57.802Z,63.96
2023-01-27T09:55:54.893Z,64.45
2023-01-27T09:58:31.415Z,64.37
2023-01-27T10:01:12.081Z,64.20
2023-01-27T10:04:12.729Z,63.50
2023-01-27T10:06:52.743Z,63.79
2023-01-27T10:09:23.143Z,63.30
2023-01-27T10:12:09.232Z,63.64
2023-01-27T10:14:39.580Z,63.09
2023-01-27T10:17:15.073Z,62.84
2023-01-27T10:20:05.575Z,63.33
2023-01-27T10:22:50.393Z,62.44
2023-01-27T10:25:33.032Z,62.76
2023-01-27T10:28:11.094Z,63.95
2023-01-27T10:30:56.128Z,64.12
2023-01-27T10:33:36.429Z,64.37
2023-01-27T10:36:16.771Z,64.30
2023-01-27T10:38:52.278Z,63.78
2023-01-27T10:41:51.267Z,63.08
2023-01-27T10:44:35.486Z,63.48
2023-01-27T10:47:09.251Z,63.32
2023-01-27T10:50:01.728Z,62.39
2023-01-27T10:52:48.976Z,62.94
2023-01-27T10:55:22.531Z,62.56
2023-01-27T10:58:04.750Z,63.19
2023-01-27T11:01:18.186Z,63.26
2023-01-27T11:03:34.698Z,62.53
2023-01-27T11:06:12.357Z,62.58
2023-01-27T11:08:44.986Z,62.89
2023-01-27T11:11:35.789Z,62.76
2023-01-27T11:14:12.601Z,62.11
2023-01-27T11:16:45.838Z,62.24
2023-01-27T11:19:42.498Z,62.15
2023-01-27T11:22:23.101Z,62.74
2023-01-27T11:25:14.850Z,62.48
2023-01-27T11:27:54.415Z,63.29
2023-01-27T11:30:32.346Z,63.09
2023-01-27T11:33:11.467Z,63.54
2023-01-27T11:35:39.166Z,63.70
2023-01-27T11:38:15.683Z,63.71
2023-01-27T11:40:45.819Z,63.82
2023-01-27T11:43:18.935Z,63.20
2023-01-27T11:45:48.457Z,63.17
2023-01-27T11:48:18.448Z,63.62
2023-01-27T11:50:46.878Z,63.59
2023-01-27T11:53:22.741Z,63.94
2023-01-27T11:55:57.374Z,64.33
2023-01-27T11:58:26.482Z,64.39
2023-01-27T12:00:59.039Z,64.12
2023-01-27T12:03:42.299Z,64.19
2023-01-27T12:06:33.776Z,64.33
2023-01-27T12:09:01.603Z,64.40
2023-01-27T12:11:31.197Z,64.37
2023-01-27T12:14:01.656Z,64.44
2023-01-27T12:16:42.798Z,64.50
2023-01-27T12:19:25.344Z,64.50
2023-01-27T12:21:58.041Z,64.63
2023-01-27T12:24:38.429Z,64.83
2023-01-27T12:27:07.526Z,64.95
2023-01-27T12:29:45.026Z,65.00
2023-01-27T12:32:21.514Z,65.11
2023-01-27T12:34:52.680Z,65.18
2023-01-27T12:37:29.294Z,65.37
2023-01-27T12:40:02.888Z,65.48
2023-01-27T12:42:36.514Z,65.52
2023-01-27T12:45:22.129Z,65.59
2023-01-27T12:48:10.195Z,65.58
2023-01-27T12:50:38.747Z,65.71
2023-01-27T12:53:23.597Z,65.75
2023-01-27T12:56:01.508Z,66.32
2023-01-27T12:58:55.302Z,65.84
2023-01-27T13:01:23.077Z,65.81
2023-01-27T13:04:18.494Z,66.10
2023-01-27T13:06:55.581Z,66.06
2023-01-27T13:09:23.341Z,66.23
2023-01-27T13:11:52.244Z,66.04
2023-01-27T13:14:20.132Z,66.06
2023-01-27T13:16:53.272Z,66.11
2023-01-27T13:19:29.831Z,66.35
2023-01-27T13:21:58.290Z,66.57
2023-01-27T13:24:37.165Z,66.69
2023-01-27T13:27:10.909Z,66.76
2023-01-27T13:29:40.739Z,66.88
2023-01-27T13:32:18.309Z,67.07
2023-01-27T13:34:50.513Z,67.26
2023-01-27T13:37:36.788Z,67.58
2023-01-27T13:40:22.471Z,67.65
2023-01-27T13:43:01.466Z,67.78
2023-01-27T13:45:47.405Z,67.83
2023-01-27T13:48:28.427Z,67.83
2023-01-27T13:51:06.818Z,67.97
2023-01-27T13:53:34.866Z,68.03
2023-01-27T13:56:11.641Z,68.22
2023-01-27T13:58:51.322Z,68.50
2023-01-27T14:01:37.917Z,68.63
2023-01-27T14:04:24.229Z,68.68
2023-01-27T14:06:54.935Z,68.90
2023-01-27T14:09:44.147Z,69.20
2023-01-27T14:12:27.385Z,69.55
2023-01-27T14:14:59.043Z,69.67
2023-01-27T14:17:38.921Z,69.94
2023-01-27T14:20:37.346Z,69.95
2023-01-27T14:23:05.048Z,70.31
2023-01-27T14:25:57.999Z,70.48
2023-01-27T14:28:33.677Z,70.75
2023-01-27T14:31:11.753Z,70.85
2023-01-27T14:34:00.722Z,70.95
2023-01-27T14:36:48.598Z,71.20
2023-01-27T14:39:29.171Z,71.34
2023-01-27T14:42:26.056Z,71.53
2023-01-27T14:45:15.998Z,71.72
2023-01-27T14:48:13.202Z,72.20
2023-01-27T14:50:59.513Z,72.14
2023-01-27T14:53:58.820Z,72.52
2023-01-27T14:56:59.962Z,72.60
2023-01-27T14:59:37.025Z,72.65
2023-01-27T15:02:17.593Z,73.04
2023-01-27T15:05:15.366Z,73.33
2023-01-27T15:07:48.739Z,73.62
2023-01-27T15:10:27.727Z,74.05
2023-01-27T15:13:36.293Z,74.20
2023-01-27T15:16:22.925Z,74.34
2023-01-27T15:19:26.460Z,74.71
2023-01-27T15:21:54.044Z,74.17
2023-01-27T15:24:45.394Z,74.40
2023-01-27T15:27:13.468Z,74.31
2023-01-27T15:29:41.381Z,74.76
2023-01-27T15:32:26.403Z,75.54
2023-01-27T15:35:29.224Z,75.45
2023-01-27T15:38:07.747Z,75.77
2023-01-27T15:40:57.811Z,75.95
2023-01-27T15:43:30.120Z,76.33
2023-01-27T15:46:18.594Z,76.21
2023-01-27T15:48:46.669Z,76.01
2023-01-27T15:51:20.301Z,75.91
2023-01-27T15:53:54.875Z,76.48
2023-01-27T15:56:41.622Z,76.46
2023-01-27T15:59:15.980Z,76.56
2023-01-27T16:01:43.683Z,76.67
2023-01-27T16:04:11.331Z,76.68
2023-01-27T16:06:52.762Z,76.89
2023-01-27T16:09:34.642Z,77.02
2023-01-27T16:12:31.446Z,76.87
2023-01-27T16:15:01.869Z,77.08
2023-01-27T16:17:33.315Z,77.00
2023-01-27T16:20:20.991Z,76.88
2023-01-27T16:22:58.329Z,76.67
2023-01-27T16:25:41.198Z,76.70
2023-01-27T16:28:20.003Z,76.62
2023-01-27T16:30:57.282Z,76.78
2023-01-27T16:33:31.094Z,76.85
2023-01-27T16:36:06.457Z,76.68
2023-01-27T16:38:37.005Z,76.67
2023-01-27T16:41:16.156Z,76.78
2023-01-27T16:43:48.689Z,76.67
2023-01-27T16:46:38.133Z,76.73
2023-01-27T16:49:32.222Z,76.85
2023-01-27T16:52:05.124Z,76.52
2023-01-27T16:54:40.038Z,76.64
2023-01-27T16:57:23.463Z,76.70
2023-01-27T16:59:52.251Z,76.81
2023-01-27T17:02:23.934Z,76.85
2023-01-27T17:04:56.127Z,76.66
2023-01-27T17:07:23.858Z,76.79
2023-01-27T17:09:54.850Z,76.77
2023-01-27T17:12:33.257Z,76.72
2023-01-27T17:15:15.561Z,76.78
2023-01-27T17:17:43.770Z,76.82
2023-01-27T17:20:23.832Z,76.90
2023-01-27T17:22:54.369Z,76.81
2023-01-27T17:25:41.669Z,76.79
2023-01-27T17:28:16.906Z,76.63
2023-01-27T17:30:46.822Z,76.56
2023-01-27T17:33:18.672Z,76.54
2023-01-27T17:35:52.479Z,76.54
2023-01-27T17:38:25.957Z,76.61
2023-01-27T17:40:55.080Z,76.62
2023-01-27T17:43:30.989Z,76.59
2023-01-27T17:46:14.924Z,76.69
2023-01-27T17:48:52.265Z,76.79
2023-01-27T17:51:25.585Z,76.83
2023-01-27T17:53:54.554Z,76.83
2023-01-27T17:56:27.841Z,76.94
2023-01-27T17:59:03.021Z,77.02
2023-01-27T18:01:31.657Z,77.20
2023-01-27T18:04:00.164Z,77.27
2023-01-27T18:06:32.105Z,77.05
2023-01-27T18:09:14.573Z,76.98
2023-01-27T18:12:01.311Z,77.13
2023-01-27T18:14:34.252Z,76.98
2023-01-27T18:17:23.081Z,77.05
2023-01-27T18:19:53.188Z,77.27
2023-01-27T18:22:22.452Z,77.35
2023-01-27T18:24:53.442Z,77.45
2023-01-27T18:27:28.065Z,77.55
2023-01-27T18:30:00.717Z,77.56
2023-01-27T18:32:37.658Z,77.53
2023-01-27T18:35:25.316Z,77.42
2023-01-27T18:38:01.625Z,77.41
2023-01-27T18:40:32.924Z,77.50
2023-01-27T18:43:02.483Z,77.66
2023-01-27T18:45:31.036Z,77.89
2023-01-27T18:47:59.564Z,78.02
2023-01-27T18:50:28.145Z,78.06
2023-01-27T18:52:55.755Z,77.96
2023-01-27T18:55:28.918Z,78.10
2023-01-27T18:57:58.780Z,78.31
2023-01-27T19:00:30.339Z,78.29
2023-01-27T19:03:01.051Z,78.26
2023-01-27T19:05:32.140Z,78.42
2023-01-27T19:08:00.709Z,78.50
2023-01-27T19:10:32.447Z,78.46
2023-01-27T19:13:02.617Z,78.52
2023-01-27T19:15:37.360Z,78.55
2023-01-27T19:18:24.314Z,78.69
2023-01-27T19:20:53.214Z,78.65
2023-01-27T19:23:21.653Z,78.61
2023-01-27T19:25:53.282Z,78.68
2023-01-27T19:28:29.061Z,78.76
2023-01-27T19:30:57.745Z,78.87
2023-01-27T19:33:28.054Z,78.85
2023-01-27T19:36:14.062Z,79.10
2023-01-27T19:38:41.770Z,79.28
2023-01-27T19:41:10.753Z,79.11
2023-01-27T19:43:38.515Z,79.20
2023-01-27T19:46:13.762Z,79.32
2023-01-27T19:48:41.775Z,79.51
2023-01-27T19:51:11.960Z,79.63
2023-01-27T19:53:39.670Z,79.89
2023-01-27T19:56:17.156Z,79.89
2023-01-27T19:58:47.188Z,79.93
2023-01-27T20:01:15.033Z,80.03
2023-01-27T20:03:42.823Z,80.07
2023-01-27T20:06:17.534Z,80.07
2023-01-27T20:08:45.214Z,80.12
2023-01-27T20:11:34.593Z,80.02
2023-01-27T20:14:26.141Z,80.05
2023-01-27T20:16:53.829Z,80.38
2023-01-27T20:19:21.495Z,80.53
2023-01-27T20:21:50.151Z,80.69
2023-01-27T20:24:19.771Z,80.30
2023-01-27T20:26:47.843Z,80.26
2023-01-27T20:29:15.598Z,80.56
2023-01-27T20:31:43.543Z,80.75
2023-01-27T20:34:11.499Z,80.82
2023-01-27T20:36:39.301Z,80.90
2023-01-27T20:39:06.998Z,80.94
2023-01-27T20:41:34.620Z,80.83
2023-01-27T20:44:02.365Z,80.60
2023-01-27T20:46:30.745Z,80.49
2023-01-27T20:48:58.998Z,80.39
2023-01-27T20:51:26.875Z,80.42
2023-01-27T20:53:54.885Z,80.45
2023-01-27T20:56:23.914Z,80.54
2023-01-27T20:58:51.763Z,80.55
2023-01-27T21:01:21.978Z,80.57
2023-01-27T21:03:50.581Z,80.53
2023-01-27T21:06:21.732Z,80.48
2023-01-27T21:08:49.732Z,80.36
2023-01-27T21:11:20.070Z,80.37
2023-01-27T21:13:48.822Z,80.40
2023-01-27T21:16:16.649Z,80.35
2023-01-27T21:18:44.583Z,80.38
2023-01-27T21:21:28.022Z,80.43
2023-01-27T21:23:57.395Z,80.24
2023-01-27T21:26:25.147Z,80.16
2023-01-27T21:28:53.243Z,80.18
2023-01-27T21:31:22.163Z,80.27
2023-01-27T21:33:50.752Z,80.68
2023-01-27T21:36:19.410Z,80.52
2023-01-27T21:38:50.333Z,80.48
2023-01-27T21:41:57.974Z,80.51
2023-01-27T21:44:46.763Z,80.55
2023-01-27T21:47:17.748Z,80.68
2023-01-27T21:50:02.841Z,80.85
2023-01-27T21:52:35.580Z,80.99
2023-01-27T21:55:06.291Z,81.22
2023-01-27T21:57:34.879Z,81.39
2023-01-27T22:00:05.301Z,81.49
2023-01-27T22:02:40.047Z,81.48
2023-01-27T22:05:09.618Z,81.49
2023-01-27T22:07:38.529Z,81.52
2023-01-27T22:10:08.996Z,81.86
2023-01-27T22:12:36.638Z,81.79
2023-01-27T22:15:06.445Z,81.57
2023-01-27T22:17:34.839Z,81.70
2023-01-27T22:20:04.019Z,81.62
2023-01-27T22:22:31.761Z,81.65
2023-01-27T22:24:59.476Z,81.62
2023-01-27T22:27:27.091Z,81.75
2023-01-27T22:29:54.719Z,81.74
2023-01-27T22:32:22.479Z,81.98
2023-01-27T22:34:50.714Z,82.13
2023-01-27T22:37:18.425Z,82.15
2023-01-27T22:39:46.064Z,82.34
2023-01-27T22:42:14.494Z,82.56
2023-01-27T22:44:42.145Z,82.68
2023-01-27T22:47:09.772Z,82.83
2023-01-27T22:49:37.471Z,82.96
2023-01-27T22:52:05.166Z,82.89
2023-01-27T22:54:32.827Z,82.85
2023-01-27T22:57:01.227Z,82.95
2023-01-27T22:59:29.002Z,83.11
2023-01-27T23:01:56.690Z,83.22
2023-01-27T23:04:24.373Z,83.28
2023-01-27T23:06:52.139Z,83.32
2023-01-27T23:09:19.791Z,83.34
2023-01-27T23:11:47.615Z,83.41
2023-01-27T23:14:15.257Z,83.50
2023-01-27T23:16:42.963Z,83.55
2023-01-27T23:19:11.019Z,83.57
2023-01-27T23:21:38.674Z,83.59
2023-01-27T23:24:07.757Z,83.59
2023-01-27T23:26:35.681Z,83.55
2023-01-27T23:29:05.186Z,83.50
2023-01-27T23:31:36.311Z,83.56
2023-01-27T23:34:04.087Z,83.63
2023-01-27T23:36:31.992Z,83.66
2023-01-27T23:38:59.672Z,83.70
2023-01-27T23:41:27.629Z,83.74
2023-01-27T23:43:56.581Z,83.71
2023-01-27T23:46:25.097Z,83.73
2023-01-27T23:48:54.808Z,83.76
2023-01-27T23:51:22.709Z,83.77
2023-01-27T23:53:51.178Z,83.69
2023-01-27T23:56:20.517Z,83.81
2023-01-27T23:58:48.470Z,83.84
